sensor_id;sensor_type;location;lat;lon;timestamp;P1;durP1;ratioP1;P2;durP2;ratioP2
51732;SDS011;39139;53.144;6.244;2023-07-30T00:01:32;15.55;;;7.88;;
51732;SDS011;39139;53.144;6.244;2023-07-30T00:03:58;18.55;;;6.93;;
51732;SDS011;39139;53.144;6.244;2023-07-30T00:06:24;22.27;;;7.32;;
51732;SDS011;39139;53.144;6.244;2023-07-30T00:08:49;21.52;;;8.10;;
51732;SDS011;39139;53.144;6.244;2023-07-30T00:11:15;20.45;;;8.40;;
51732;SDS011;39139;53.144;6.244;2023-07-30T00:13:41;19.77;;;6.78;;
51732;SDS011;39139;53.144;6.244;2023-07-30T00:16:07;19.55;;;6.97;;
51732;SDS011;39139;53.144;6.244;2023-07-30T00:18:33;30.33;;;8.93;;
51732;SDS011;39139;53.144;6.244;2023-07-30T00:20:59;19.45;;;7.53;;
51732;SDS011;39139;53.144;6.244;2023-07-30T00:23:24;21.52;;;8.57;;
51732;SDS011;39139;53.144;6.244;2023-07-30T00:25:50;26.13;;;8.15;;
51732;SDS011;39139;53.144;6.244;2023-07-30T00:28:15;18.30;;;7.43;;
51732;SDS011;39139;53.144;6.244;2023-07-30T00:30:41;22.23;;;8.20;;
51732;SDS011;39139;53.144;6.244;2023-07-30T00:33:07;21.70;;;8.15;;
51732;SDS011;39139;53.144;6.244;2023-07-30T00:35:32;20.42;;;7.13;;
51732;SDS011;39139;53.144;6.244;2023-07-30T00:37:58;17.88;;;7.22;;
51732;SDS011;39139;53.144;6.244;2023-07-30T00:40:24;16.60;;;8.70;;
51732;SDS011;39139;53.144;6.244;2023-07-30T00:42:49;20.38;;;7.82;;
51732;SDS011;39139;53.144;6.244;2023-07-30T00:45:15;15.88;;;7.82;;
51732;SDS011;39139;53.144;6.244;2023-07-30T00:47:41;20.15;;;7.82;;
51732;SDS011;39139;53.144;6.244;2023-07-30T00:50:07;17.67;;;7.90;;
51732;SDS011;39139;53.144;6.244;2023-07-30T00:52:35;26.13;;;8.05;;
51732;SDS011;39139;53.144;6.244;2023-07-30T00:55:02;23.83;;;8.27;;
51732;SDS011;39139;53.144;6.244;2023-07-30T00:57:28;23.40;;;8.23;;
51732;SDS011;39139;53.144;6.244;2023-07-30T00:59:55;20.30;;;8.43;;
51732;SDS011;39139;53.144;6.244;2023-07-30T01:02:22;20.80;;;7.80;;
51732;SDS011;39139;53.144;6.244;2023-07-30T01:04:48;23.83;;;8.73;;
51732;SDS011;39139;53.144;6.244;2023-07-30T01:07:14;22.42;;;8.85;;
51732;SDS011;39139;53.144;6.244;2023-07-30T01:09:40;29.00;;;9.55;;
51732;SDS011;39139;53.144;6.244;2023-07-30T01:12:06;25.08;;;8.88;;
51732;SDS011;39139;53.144;6.244;2023-07-30T01:14:32;26.95;;;8.52;;
51732;SDS011;39139;53.144;6.244;2023-07-30T01:17:00;29.90;;;9.35;;
51732;SDS011;39139;53.144;6.244;2023-07-30T01:19:26;23.27;;;8.77;;
51732;SDS011;39139;53.144;6.244;2023-07-30T01:21:51;24.90;;;8.57;;
51732;SDS011;39139;53.144;6.244;2023-07-30T01:24:17;22.75;;;8.68;;
51732;SDS011;39139;53.144;6.244;2023-07-30T01:26:43;35.55;;;10.90;;
51732;SDS011;39139;53.144;6.244;2023-07-30T01:29:14;23.45;;;8.77;;
51732;SDS011;39139;53.144;6.244;2023-07-30T01:31:46;28.08;;;9.00;;
51732;SDS011;39139;53.144;6.244;2023-07-30T01:34:17;25.92;;;10.30;;
51732;SDS011;39139;53.144;6.244;2023-07-30T01:36:44;24.23;;;10.00;;
51732;SDS011;39139;53.144;6.244;2023-07-30T01:39:10;26.95;;;9.38;;
51732;SDS011;39139;53.144;6.244;2023-07-30T01:41:37;30.17;;;10.45;;
51732;SDS011;39139;53.144;6.244;2023-07-30T01:44:02;29.55;;;10.25;;
51732;SDS011;39139;53.144;6.244;2023-07-30T01:46:28;22.60;;;9.55;;
51732;SDS011;39139;53.144;6.244;2023-07-30T01:48:54;26.05;;;9.00;;
51732;SDS011;39139;53.144;6.244;2023-07-30T01:51:20;27.70;;;10.15;;
51732;SDS011;39139;53.144;6.244;2023-07-30T01:53:45;27.45;;;9.43;;
51732;SDS011;39139;53.144;6.244;2023-07-30T01:56:11;21.85;;;8.82;;
51732;SDS011;39139;53.144;6.244;2023-07-30T01:58:37;30.38;;;8.70;;
51732;SDS011;39139;53.144;6.244;2023-07-30T02:01:02;32.40;;;8.30;;
51732;SDS011;39139;53.144;6.244;2023-07-30T02:03:28;29.40;;;9.48;;
51732;SDS011;39139;53.144;6.244;2023-07-30T02:05:54;27.45;;;8.75;;
51732;SDS011;39139;53.144;6.244;2023-07-30T02:08:19;23.92;;;9.05;;
51732;SDS011;39139;53.144;6.244;2023-07-30T02:10:53;29.80;;;8.85;;
51732;SDS011;39139;53.144;6.244;2023-07-30T02:13:23;25.05;;;8.68;;
51732;SDS011;39139;53.144;6.244;2023-07-30T02:15:49;32.33;;;8.52;;
51732;SDS011;39139;53.144;6.244;2023-07-30T02:18:17;22.73;;;8.70;;
51732;SDS011;39139;53.144;6.244;2023-07-30T02:20:43;23.42;;;8.85;;
51732;SDS011;39139;53.144;6.244;2023-07-30T02:23:08;32.85;;;8.60;;
51732;SDS011;39139;53.144;6.244;2023-07-30T02:25:34;20.85;;;7.65;;
51732;SDS011;39139;53.144;6.244;2023-07-30T02:28:00;25.08;;;7.72;;
51732;SDS011;39139;53.144;6.244;2023-07-30T02:30:27;22.20;;;7.72;;
51732;SDS011;39139;53.144;6.244;2023-07-30T02:32:53;26.30;;;8.02;;
51732;SDS011;39139;53.144;6.244;2023-07-30T02:35:18;26.95;;;8.52;;
51732;SDS011;39139;53.144;6.244;2023-07-30T02:37:44;28.27;;;8.20;;
51732;SDS011;39139;53.144;6.244;2023-07-30T02:40:10;33.47;;;8.65;;
51732;SDS011;39139;53.144;6.244;2023-07-30T02:42:36;32.28;;;8.80;;
51732;SDS011;39139;53.144;6.244;2023-07-30T02:45:02;27.88;;;8.65;;
51732;SDS011;39139;53.144;6.244;2023-07-30T02:47:28;20.10;;;8.20;;
51732;SDS011;39139;53.144;6.244;2023-07-30T02:49:53;34.97;;;7.97;;
51732;SDS011;39139;53.144;6.244;2023-07-30T02:52:19;33.03;;;9.32;;
51732;SDS011;39139;53.144;6.244;2023-07-30T02:54:45;25.70;;;7.95;;
51732;SDS011;39139;53.144;6.244;2023-07-30T02:57:10;23.63;;;7.72;;
51732;SDS011;39139;53.144;6.244;2023-07-30T02:59:37;25.50;;;8.70;;
51732;SDS011;39139;53.144;6.244;2023-07-30T03:02:03;31.92;;;8.63;;
51732;SDS011;39139;53.144;6.244;2023-07-30T03:04:32;31.13;;;8.77;;
51732;SDS011;39139;53.144;6.244;2023-07-30T03:06:58;25.42;;;7.57;;
51732;SDS011;39139;53.144;6.244;2023-07-30T03:09:24;27.48;;;7.63;;
51732;SDS011;39139;53.144;6.244;2023-07-30T03:11:50;23.70;;;8.05;;
51732;SDS011;39139;53.144;6.244;2023-07-30T03:14:15;32.22;;;8.48;;
51732;SDS011;39139;53.144;6.244;2023-07-30T03:19:11;26.75;;;8.80;;
51732;SDS011;39139;53.144;6.244;2023-07-30T03:21:37;25.27;;;7.18;;
51732;SDS011;39139;53.144;6.244;2023-07-30T03:24:03;24.00;;;7.80;;
51732;SDS011;39139;53.144;6.244;2023-07-30T03:26:28;31.60;;;7.65;;
51732;SDS011;39139;53.144;6.244;2023-07-30T03:28:54;21.92;;;7.15;;
51732;SDS011;39139;53.144;6.244;2023-07-30T03:31:20;28.95;;;7.55;;
51732;SDS011;39139;53.144;6.244;2023-07-30T03:33:45;29.05;;;7.55;;
51732;SDS011;39139;53.144;6.244;2023-07-30T03:36:14;22.35;;;5.60;;
51732;SDS011;39139;53.144;6.244;2023-07-30T03:38:40;30.48;;;7.32;;
51732;SDS011;39139;53.144;6.244;2023-07-30T03:41:07;21.42;;;6.55;;
51732;SDS011;39139;53.144;6.244;2023-07-30T03:43:33;22.08;;;7.93;;
51732;SDS011;39139;53.144;6.244;2023-07-30T03:45:59;23.25;;;6.63;;
51732;SDS011;39139;53.144;6.244;2023-07-30T03:48:25;21.85;;;6.97;;
51732;SDS011;39139;53.144;6.244;2023-07-30T03:50:51;27.98;;;7.63;;
51732;SDS011;39139;53.144;6.244;2023-07-30T03:53:17;27.08;;;7.07;;
51732;SDS011;39139;53.144;6.244;2023-07-30T03:55:43;29.45;;;7.03;;
51732;SDS011;39139;53.144;6.244;2023-07-30T03:58:09;27.38;;;6.88;;
51732;SDS011;39139;53.144;6.244;2023-07-30T04:00:34;25.33;;;7.75;;
51732;SDS011;39139;53.144;6.244;2023-07-30T04:03:00;18.10;;;6.72;;
51732;SDS011;39139;53.144;6.244;2023-07-30T04:05:26;24.73;;;6.63;;
51732;SDS011;39139;53.144;6.244;2023-07-30T04:07:51;22.70;;;7.13;;
51732;SDS011;39139;53.144;6.244;2023-07-30T04:10:17;32.65;;;8.07;;
51732;SDS011;39139;53.144;6.244;2023-07-30T04:12:43;24.23;;;6.53;;
51732;SDS011;39139;53.144;6.244;2023-07-30T04:15:09;26.35;;;7.25;;
51732;SDS011;39139;53.144;6.244;2023-07-30T04:17:36;23.60;;;7.05;;
51732;SDS011;39139;53.144;6.244;2023-07-30T04:20:02;28.90;;;5.95;;
51732;SDS011;39139;53.144;6.244;2023-07-30T04:22:29;21.27;;;6.40;;
51732;SDS011;39139;53.144;6.244;2023-07-30T04:24:55;34.88;;;8.20;;
51732;SDS011;39139;53.144;6.244;2023-07-30T04:27:20;22.02;;;6.43;;
51732;SDS011;39139;53.144;6.244;2023-07-30T04:29:46;22.10;;;6.20;;
51732;SDS011;39139;53.144;6.244;2023-07-30T04:32:12;21.58;;;6.63;;
51732;SDS011;39139;53.144;6.244;2023-07-30T04:34:37;23.15;;;6.15;;
51732;SDS011;39139;53.144;6.244;2023-07-30T04:37:03;31.13;;;5.60;;
51732;SDS011;39139;53.144;6.244;2023-07-30T04:39:32;26.58;;;6.05;;
51732;SDS011;39139;53.144;6.244;2023-07-30T04:42:00;19.08;;;5.50;;
51732;SDS011;39139;53.144;6.244;2023-07-30T04:44:25;27.80;;;6.10;;
51732;SDS011;39139;53.144;6.244;2023-07-30T04:46:51;22.70;;;5.57;;
51732;SDS011;39139;53.144;6.244;2023-07-30T04:49:16;17.33;;;5.03;;
51732;SDS011;39139;53.144;6.244;2023-07-30T04:51:42;16.05;;;4.32;;
51732;SDS011;39139;53.144;6.244;2023-07-30T04:54:08;21.27;;;4.43;;
51732;SDS011;39139;53.144;6.244;2023-07-30T04:56:33;22.92;;;4.13;;
51732;SDS011;39139;53.144;6.244;2023-07-30T04:59:00;21.55;;;4.05;;
51732;SDS011;39139;53.144;6.244;2023-07-30T05:01:26;14.05;;;3.90;;
51732;SDS011;39139;53.144;6.244;2023-07-30T05:03:52;14.60;;;3.55;;
51732;SDS011;39139;53.144;6.244;2023-07-30T05:06:17;14.02;;;3.83;;
51732;SDS011;39139;53.144;6.244;2023-07-30T05:08:43;18.13;;;3.60;;
51732;SDS011;39139;53.144;6.244;2023-07-30T05:11:09;14.18;;;2.85;;
51732;SDS011;39139;53.144;6.244;2023-07-30T05:13:34;17.23;;;2.97;;
51732;SDS011;39139;53.144;6.244;2023-07-30T05:16:00;13.43;;;3.33;;
51732;SDS011;39139;53.144;6.244;2023-07-30T05:18:26;19.65;;;3.13;;
51732;SDS011;39139;53.144;6.244;2023-07-30T05:20:52;12.25;;;2.83;;
51732;SDS011;39139;53.144;6.244;2023-07-30T05:23:19;17.17;;;2.67;;
51732;SDS011;39139;53.144;6.244;2023-07-30T05:25:45;9.30;;;2.47;;
51732;SDS011;39139;53.144;6.244;2023-07-30T05:28:11;15.40;;;2.53;;
51732;SDS011;39139;53.144;6.244;2023-07-30T05:30:37;19.63;;;3.35;;
51732;SDS011;39139;53.144;6.244;2023-07-30T05:33:02;12.15;;;2.47;;
51732;SDS011;39139;53.144;6.244;2023-07-30T05:35:28;16.33;;;3.53;;
51732;SDS011;39139;53.144;6.244;2023-07-30T05:37:54;12.07;;;2.53;;
51732;SDS011;39139;53.144;6.244;2023-07-30T05:40:20;12.73;;;2.83;;
51732;SDS011;39139;53.144;6.244;2023-07-30T05:42:46;8.20;;;2.25;;
51732;SDS011;39139;53.144;6.244;2023-07-30T05:45:12;8.20;;;2.22;;
51732;SDS011;39139;53.144;6.244;2023-07-30T05:47:38;9.25;;;2.17;;
51732;SDS011;39139;53.144;6.244;2023-07-30T05:50:04;13.90;;;2.83;;
51732;SDS011;39139;53.144;6.244;2023-07-30T05:52:30;13.38;;;2.33;;
51732;SDS011;39139;53.144;6.244;2023-07-30T05:54:55;15.25;;;3.00;;
51732;SDS011;39139;53.144;6.244;2023-07-30T05:57:21;18.35;;;2.45;;
51732;SDS011;39139;53.144;6.244;2023-07-30T05:59:47;11.55;;;2.30;;
51732;SDS011;39139;53.144;6.244;2023-07-30T06:02:12;10.20;;;2.80;;
51732;SDS011;39139;53.144;6.244;2023-07-30T06:04:38;11.93;;;2.78;;
51732;SDS011;39139;53.144;6.244;2023-07-30T06:07:04;14.88;;;2.88;;
51732;SDS011;39139;53.144;6.244;2023-07-30T06:09:30;13.80;;;2.65;;
51732;SDS011;39139;53.144;6.244;2023-07-30T06:11:56;10.95;;;3.33;;
51732;SDS011;39139;53.144;6.244;2023-07-30T06:16:51;15.98;;;2.58;;
51732;SDS011;39139;53.144;6.244;2023-07-30T06:19:17;18.35;;;2.88;;
51732;SDS011;39139;53.144;6.244;2023-07-30T06:21:43;12.55;;;2.50;;
51732;SDS011;39139;53.144;6.244;2023-07-30T06:24:09;16.40;;;2.55;;
51732;SDS011;39139;53.144;6.244;2023-07-30T06:26:35;10.75;;;2.72;;
51732;SDS011;39139;53.144;6.244;2023-07-30T06:29:00;11.88;;;2.28;;
51732;SDS011;39139;53.144;6.244;2023-07-30T06:31:26;11.38;;;2.75;;
51732;SDS011;39139;53.144;6.244;2023-07-30T06:33:52;9.98;;;2.65;;
51732;SDS011;39139;53.144;6.244;2023-07-30T06:36:17;14.85;;;2.58;;
51732;SDS011;39139;53.144;6.244;2023-07-30T06:38:43;9.68;;;2.17;;
51732;SDS011;39139;53.144;6.244;2023-07-30T06:41:09;14.20;;;2.83;;
51732;SDS011;39139;53.144;6.244;2023-07-30T06:43:34;15.07;;;2.55;;
51732;SDS011;39139;53.144;6.244;2023-07-30T06:46:00;10.43;;;2.50;;
51732;SDS011;39139;53.144;6.244;2023-07-30T06:48:26;10.45;;;2.92;;
51732;SDS011;39139;53.144;6.244;2023-07-30T06:50:51;13.02;;;2.80;;
51732;SDS011;39139;53.144;6.244;2023-07-30T06:53:17;12.73;;;2.65;;
51732;SDS011;39139;53.144;6.244;2023-07-30T06:55:44;10.50;;;2.35;;
51732;SDS011;39139;53.144;6.244;2023-07-30T06:58:10;12.70;;;2.85;;
51732;SDS011;39139;53.144;6.244;2023-07-30T07:00:36;11.20;;;3.10;;
51732;SDS011;39139;53.144;6.244;2023-07-30T07:03:02;7.25;;;2.15;;
51732;SDS011;39139;53.144;6.244;2023-07-30T07:05:28;8.55;;;2.75;;
51732;SDS011;39139;53.144;6.244;2023-07-30T07:07:54;7.50;;;2.05;;
51732;SDS011;39139;53.144;6.244;2023-07-30T07:10:20;9.82;;;2.53;;
51732;SDS011;39139;53.144;6.244;2023-07-30T07:12:46;16.70;;;4.03;;
51732;SDS011;39139;53.144;6.244;2023-07-30T07:15:12;9.07;;;2.47;;
51732;SDS011;39139;53.144;6.244;2023-07-30T07:17:38;14.23;;;2.80;;
51732;SDS011;39139;53.144;6.244;2023-07-30T07:20:04;9.38;;;2.88;;
51732;SDS011;39139;53.144;6.244;2023-07-30T07:22:32;7.60;;;1.95;;
51732;SDS011;39139;53.144;6.244;2023-07-30T07:24:58;10.57;;;2.25;;
51732;SDS011;39139;53.144;6.244;2023-07-30T07:27:23;12.70;;;2.42;;
51732;SDS011;39139;53.144;6.244;2023-07-30T07:29:50;6.28;;;1.73;;
51732;SDS011;39139;53.144;6.244;2023-07-30T07:32:16;13.60;;;2.83;;
51732;SDS011;39139;53.144;6.244;2023-07-30T07:34:45;13.45;;;3.13;;
51732;SDS011;39139;53.144;6.244;2023-07-30T07:37:14;12.40;;;2.17;;
51732;SDS011;39139;53.144;6.244;2023-07-30T07:39:41;10.30;;;2.50;;
51732;SDS011;39139;53.144;6.244;2023-07-30T07:42:08;9.10;;;2.55;;
51732;SDS011;39139;53.144;6.244;2023-07-30T07:44:34;12.30;;;2.58;;
51732;SDS011;39139;53.144;6.244;2023-07-30T07:47:00;17.50;;;2.72;;
51732;SDS011;39139;53.144;6.244;2023-07-30T07:49:25;8.40;;;2.35;;
51732;SDS011;39139;53.144;6.244;2023-07-30T07:51:51;8.57;;;2.17;;
51732;SDS011;39139;53.144;6.244;2023-07-30T07:54:16;9.57;;;2.17;;
51732;SDS011;39139;53.144;6.244;2023-07-30T07:56:42;11.73;;;2.60;;
51732;SDS011;39139;53.144;6.244;2023-07-30T07:59:08;14.70;;;2.78;;
51732;SDS011;39139;53.144;6.244;2023-07-30T08:01:33;12.15;;;2.45;;
51732;SDS011;39139;53.144;6.244;2023-07-30T08:03:59;9.00;;;2.60;;
51732;SDS011;39139;53.144;6.244;2023-07-30T08:06:25;18.70;;;2.40;;
51732;SDS011;39139;53.144;6.244;2023-07-30T08:08:50;13.18;;;2.30;;
51732;SDS011;39139;53.144;6.244;2023-07-30T08:11:16;17.75;;;2.72;;
51732;SDS011;39139;53.144;6.244;2023-07-30T08:13:42;13.27;;;2.30;;
51732;SDS011;39139;53.144;6.244;2023-07-30T08:16:07;10.40;;;2.15;;
51732;SDS011;39139;53.144;6.244;2023-07-30T08:18:33;12.73;;;2.70;;
51732;SDS011;39139;53.144;6.244;2023-07-30T08:21:02;18.33;;;3.03;;
51732;SDS011;39139;53.144;6.244;2023-07-30T08:23:27;14.35;;;2.65;;
51732;SDS011;39139;53.144;6.244;2023-07-30T08:25:53;12.75;;;2.45;;
51732;SDS011;39139;53.144;6.244;2023-07-30T08:28:19;14.60;;;2.70;;
51732;SDS011;39139;53.144;6.244;2023-07-30T08:30:44;12.60;;;2.17;;
51732;SDS011;39139;53.144;6.244;2023-07-30T08:33:11;9.88;;;2.55;;
51732;SDS011;39139;53.144;6.244;2023-07-30T08:35:36;9.50;;;2.30;;
51732;SDS011;39139;53.144;6.244;2023-07-30T08:38:02;17.38;;;2.50;;
51732;SDS011;39139;53.144;6.244;2023-07-30T08:40:27;16.60;;;2.60;;
51732;SDS011;39139;53.144;6.244;2023-07-30T08:42:53;11.00;;;2.35;;
51732;SDS011;39139;53.144;6.244;2023-07-30T08:45:19;13.70;;;2.20;;
51732;SDS011;39139;53.144;6.244;2023-07-30T08:47:46;14.27;;;2.88;;
51732;SDS011;39139;53.144;6.244;2023-07-30T08:50:12;12.57;;;2.60;;
51732;SDS011;39139;53.144;6.244;2023-07-30T08:52:38;13.40;;;2.80;;
51732;SDS011;39139;53.144;6.244;2023-07-30T08:55:04;15.82;;;2.95;;
51732;SDS011;39139;53.144;6.244;2023-07-30T08:57:31;12.98;;;2.60;;
51732;SDS011;39139;53.144;6.244;2023-07-30T09:00:05;10.55;;;2.75;;
51732;SDS011;39139;53.144;6.244;2023-07-30T09:05:07;6.18;;;1.75;;
51732;SDS011;39139;53.144;6.244;2023-07-30T09:07:34;8.82;;;1.98;;
51732;SDS011;39139;53.144;6.244;2023-07-30T09:09:59;10.75;;;1.80;;
51732;SDS011;39139;53.144;6.244;2023-07-30T09:12:29;7.90;;;1.52;;
51732;SDS011;39139;53.144;6.244;2023-07-30T09:14:56;5.80;;;1.20;;
51732;SDS011;39139;53.144;6.244;2023-07-30T09:17:22;4.78;;;1.20;;
51732;SDS011;39139;53.144;6.244;2023-07-30T09:19:48;5.43;;;1.23;;
51732;SDS011;39139;53.144;6.244;2023-07-30T09:22:28;7.20;;;1.45;;
51732;SDS011;39139;53.144;6.244;2023-07-30T09:25:04;3.55;;;0.98;;
51732;SDS011;39139;53.144;6.244;2023-07-30T09:27:30;6.90;;;1.90;;
51732;SDS011;39139;53.144;6.244;2023-07-30T09:29:58;4.75;;;1.40;;
51732;SDS011;39139;53.144;6.244;2023-07-30T09:32:27;5.82;;;1.67;;
51732;SDS011;39139;53.144;6.244;2023-07-30T09:34:54;5.13;;;1.38;;
51732;SDS011;39139;53.144;6.244;2023-07-30T09:37:21;6.13;;;1.38;;
51732;SDS011;39139;53.144;6.244;2023-07-30T09:39:49;6.47;;;1.75;;
51732;SDS011;39139;53.144;6.244;2023-07-30T09:42:15;4.97;;;1.98;;
51732;SDS011;39139;53.144;6.244;2023-07-30T09:44:41;9.05;;;1.52;;
51732;SDS011;39139;53.144;6.244;2023-07-30T09:47:10;7.18;;;1.25;;
51732;SDS011;39139;53.144;6.244;2023-07-30T09:49:36;5.25;;;1.05;;
51732;SDS011;39139;53.144;6.244;2023-07-30T09:52:04;7.75;;;1.25;;
51732;SDS011;39139;53.144;6.244;2023-07-30T09:54:31;7.18;;;1.52;;
51732;SDS011;39139;53.144;6.244;2023-07-30T09:56:58;4.70;;;1.85;;
51732;SDS011;39139;53.144;6.244;2023-07-30T09:59:24;9.23;;;1.88;;
51732;SDS011;39139;53.144;6.244;2023-07-30T10:01:50;10.95;;;2.63;;
51732;SDS011;39139;53.144;6.244;2023-07-30T10:04:20;11.85;;;1.60;;
51732;SDS011;39139;53.144;6.244;2023-07-30T10:09:40;6.40;;;2.13;;
51732;SDS011;39139;53.144;6.244;2023-07-30T10:12:12;6.80;;;1.63;;
51732;SDS011;39139;53.144;6.244;2023-07-30T10:14:41;6.68;;;1.63;;
51732;SDS011;39139;53.144;6.244;2023-07-30T10:17:09;7.93;;;1.88;;
51732;SDS011;39139;53.144;6.244;2023-07-30T10:19:36;13.02;;;2.40;;
51732;SDS011;39139;53.144;6.244;2023-07-30T10:24:59;12.30;;;2.10;;
51732;SDS011;39139;53.144;6.244;2023-07-30T10:27:27;11.52;;;1.85;;
51732;SDS011;39139;53.144;6.244;2023-07-30T10:30:20;7.65;;;1.63;;
51732;SDS011;39139;53.144;6.244;2023-07-30T10:35:38;13.48;;;2.70;;
51732;SDS011;39139;53.144;6.244;2023-07-30T10:38:18;11.18;;;2.10;;
51732;SDS011;39139;53.144;6.244;2023-07-30T10:40:59;13.60;;;2.17;;
51732;SDS011;39139;53.144;6.244;2023-07-30T10:43:36;6.95;;;2.40;;
51732;SDS011;39139;53.144;6.244;2023-07-30T10:46:12;11.10;;;2.25;;
51732;SDS011;39139;53.144;6.244;2023-07-30T10:48:40;12.50;;;3.28;;
51732;SDS011;39139;53.144;6.244;2023-07-30T10:51:08;13.90;;;2.40;;
51732;SDS011;39139;53.144;6.244;2023-07-30T10:53:35;10.90;;;2.15;;
51732;SDS011;39139;53.144;6.244;2023-07-30T10:56:02;10.48;;;2.40;;
51732;SDS011;39139;53.144;6.244;2023-07-30T10:58:32;5.97;;;2.28;;
51732;SDS011;39139;53.144;6.244;2023-07-30T11:01:01;9.70;;;2.40;;
51732;SDS011;39139;53.144;6.244;2023-07-30T11:03:28;11.50;;;2.20;;
51732;SDS011;39139;53.144;6.244;2023-07-30T11:05:54;11.43;;;2.15;;
51732;SDS011;39139;53.144;6.244;2023-07-30T11:08:39;5.25;;;1.83;;
51732;SDS011;39139;53.144;6.244;2023-07-30T11:11:07;13.65;;;2.67;;
51732;SDS011;39139;53.144;6.244;2023-07-30T11:13:41;10.82;;;2.30;;
51732;SDS011;39139;53.144;6.244;2023-07-30T11:16:09;8.60;;;1.73;;
51732;SDS011;39139;53.144;6.244;2023-07-30T11:18:38;8.98;;;1.90;;
51732;SDS011;39139;53.144;6.244;2023-07-30T11:21:09;9.80;;;2.38;;
51732;SDS011;39139;53.144;6.244;2023-07-30T11:23:37;10.98;;;2.38;;
51732;SDS011;39139;53.144;6.244;2023-07-30T11:26:05;8.55;;;1.83;;
51732;SDS011;39139;53.144;6.244;2023-07-30T11:28:33;8.43;;;2.10;;
51732;SDS011;39139;53.144;6.244;2023-07-30T11:33:36;11.07;;;1.95;;
51732;SDS011;39139;53.144;6.244;2023-07-30T11:36:04;13.27;;;3.13;;
51732;SDS011;39139;53.144;6.244;2023-07-30T11:38:32;13.40;;;2.45;;
51732;SDS011;39139;53.144;6.244;2023-07-30T11:40:58;10.30;;;2.38;;
51732;SDS011;39139;53.144;6.244;2023-07-30T11:43:24;10.88;;;2.20;;
51732;SDS011;39139;53.144;6.244;2023-07-30T11:46:06;12.23;;;2.20;;
51732;SDS011;39139;53.144;6.244;2023-07-30T11:48:39;12.43;;;2.42;;
51732;SDS011;39139;53.144;6.244;2023-07-30T11:51:06;14.32;;;2.80;;
51732;SDS011;39139;53.144;6.244;2023-07-30T11:53:48;12.77;;;2.20;;
51732;SDS011;39139;53.144;6.244;2023-07-30T11:56:18;8.48;;;1.40;;
51732;SDS011;39139;53.144;6.244;2023-07-30T11:58:53;10.75;;;2.30;;
51732;SDS011;39139;53.144;6.244;2023-07-30T12:01:20;11.23;;;1.65;;
51732;SDS011;39139;53.144;6.244;2023-07-30T12:03:49;6.00;;;1.60;;
51732;SDS011;39139;53.144;6.244;2023-07-30T12:06:15;7.68;;;1.75;;
51732;SDS011;39139;53.144;6.244;2023-07-30T12:08:40;11.65;;;2.25;;
51732;SDS011;39139;53.144;6.244;2023-07-30T12:11:07;7.20;;;1.92;;
51732;SDS011;39139;53.144;6.244;2023-07-30T12:13:34;17.35;;;2.33;;
51732;SDS011;39139;53.144;6.244;2023-07-30T12:16:08;10.23;;;2.13;;
51732;SDS011;39139;53.144;6.244;2023-07-30T12:18:33;8.65;;;1.90;;
51732;SDS011;39139;53.144;6.244;2023-07-30T12:20:59;11.52;;;2.47;;
51732;SDS011;39139;53.144;6.244;2023-07-30T12:23:25;8.18;;;1.88;;
51732;SDS011;39139;53.144;6.244;2023-07-30T12:25:50;11.30;;;2.50;;
51732;SDS011;39139;53.144;6.244;2023-07-30T12:28:19;11.23;;;2.75;;
51732;SDS011;39139;53.144;6.244;2023-07-30T12:30:45;11.48;;;2.28;;
51732;SDS011;39139;53.144;6.244;2023-07-30T12:33:11;10.75;;;2.00;;
51732;SDS011;39139;53.144;6.244;2023-07-30T12:35:37;10.50;;;2.20;;
51732;SDS011;39139;53.144;6.244;2023-07-30T12:38:02;16.88;;;2.58;;
51732;SDS011;39139;53.144;6.244;2023-07-30T12:40:28;14.98;;;2.35;;
51732;SDS011;39139;53.144;6.244;2023-07-30T12:42:58;5.32;;;1.25;;
51732;SDS011;39139;53.144;6.244;2023-07-30T12:45:28;5.53;;;0.90;;
51732;SDS011;39139;53.144;6.244;2023-07-30T12:47:54;8.00;;;1.35;;
51732;SDS011;39139;53.144;6.244;2023-07-30T12:50:20;9.45;;;1.60;;
51732;SDS011;39139;53.144;6.244;2023-07-30T12:52:45;11.68;;;1.42;;
51732;SDS011;39139;53.144;6.244;2023-07-30T12:55:11;8.73;;;1.65;;
51732;SDS011;39139;53.144;6.244;2023-07-30T12:57:37;5.60;;;1.33;;
51732;SDS011;39139;53.144;6.244;2023-07-30T13:00:02;7.30;;;1.00;;
51732;SDS011;39139;53.144;6.244;2023-07-30T13:02:30;7.57;;;1.20;;
51732;SDS011;39139;53.144;6.244;2023-07-30T13:04:58;4.78;;;1.23;;
51732;SDS011;39139;53.144;6.244;2023-07-30T13:07:24;10.00;;;2.03;;
51732;SDS011;39139;53.144;6.244;2023-07-30T13:10:01;6.93;;;1.33;;
51732;SDS011;39139;53.144;6.244;2023-07-30T13:12:31;6.97;;;1.88;;
51732;SDS011;39139;53.144;6.244;2023-07-30T13:14:58;11.57;;;1.65;;
51732;SDS011;39139;53.144;6.244;2023-07-30T13:17:24;6.70;;;1.80;;
51732;SDS011;39139;53.144;6.244;2023-07-30T13:19:49;8.90;;;1.30;;
51732;SDS011;39139;53.144;6.244;2023-07-30T13:22:15;12.10;;;1.70;;
51732;SDS011;39139;53.144;6.244;2023-07-30T13:24:41;7.07;;;1.70;;
51732;SDS011;39139;53.144;6.244;2023-07-30T13:27:06;10.95;;;1.63;;
51732;SDS011;39139;53.144;6.244;2023-07-30T13:29:32;10.10;;;1.60;;
51732;SDS011;39139;53.144;6.244;2023-07-30T13:31:58;8.05;;;1.67;;
51732;SDS011;39139;53.144;6.244;2023-07-30T13:34:23;7.38;;;1.50;;
51732;SDS011;39139;53.144;6.244;2023-07-30T13:36:49;9.48;;;1.48;;
51732;SDS011;39139;53.144;6.244;2023-07-30T13:39:15;7.93;;;1.42;;
51732;SDS011;39139;53.144;6.244;2023-07-30T13:41:40;9.40;;;1.73;;
51732;SDS011;39139;53.144;6.244;2023-07-30T13:44:06;9.13;;;1.85;;
51732;SDS011;39139;53.144;6.244;2023-07-30T13:46:32;7.70;;;1.52;;
51732;SDS011;39139;53.144;6.244;2023-07-30T13:48:57;11.18;;;1.50;;
51732;SDS011;39139;53.144;6.244;2023-07-30T13:51:23;5.82;;;1.30;;
51732;SDS011;39139;53.144;6.244;2023-07-30T13:53:49;6.93;;;1.67;;
51732;SDS011;39139;53.144;6.244;2023-07-30T13:56:14;7.15;;;1.70;;
51732;SDS011;39139;53.144;6.244;2023-07-30T13:58:41;11.45;;;1.27;;
51732;SDS011;39139;53.144;6.244;2023-07-30T14:01:06;7.30;;;1.63;;
51732;SDS011;39139;53.144;6.244;2023-07-30T14:03:34;8.38;;;1.40;;
51732;SDS011;39139;53.144;6.244;2023-07-30T14:06:00;5.75;;;1.27;;
51732;SDS011;39139;53.144;6.244;2023-07-30T14:08:26;8.02;;;1.75;;
51732;SDS011;39139;53.144;6.244;2023-07-30T14:10:51;9.32;;;1.90;;
51732;SDS011;39139;53.144;6.244;2023-07-30T14:13:17;6.93;;;1.77;;
51732;SDS011;39139;53.144;6.244;2023-07-30T14:15:43;11.55;;;1.40;;
51732;SDS011;39139;53.144;6.244;2023-07-30T14:18:09;8.00;;;1.90;;
51732;SDS011;39139;53.144;6.244;2023-07-30T14:20:35;5.80;;;1.25;;
51732;SDS011;39139;53.144;6.244;2023-07-30T14:23:03;6.70;;;1.30;;
51732;SDS011;39139;53.144;6.244;2023-07-30T14:25:29;4.75;;;0.93;;
51732;SDS011;39139;53.144;6.244;2023-07-30T14:27:55;5.35;;;1.30;;
51732;SDS011;39139;53.144;6.244;2023-07-30T14:30:20;7.90;;;1.27;;
51732;SDS011;39139;53.144;6.244;2023-07-30T14:32:46;7.65;;;1.23;;
51732;SDS011;39139;53.144;6.244;2023-07-30T14:35:12;6.85;;;1.17;;
51732;SDS011;39139;53.144;6.244;2023-07-30T14:37:37;7.35;;;1.10;;
51732;SDS011;39139;53.144;6.244;2023-07-30T14:40:03;10.57;;;1.30;;
51732;SDS011;39139;53.144;6.244;2023-07-30T14:42:29;4.40;;;0.82;;
51732;SDS011;39139;53.144;6.244;2023-07-30T14:44:55;5.22;;;1.45;;
51732;SDS011;39139;53.144;6.244;2023-07-30T14:47:20;10.05;;;1.63;;
51732;SDS011;39139;53.144;6.244;2023-07-30T14:49:47;4.38;;;1.33;;
51732;SDS011;39139;53.144;6.244;2023-07-30T14:52:13;5.95;;;1.55;;
51732;SDS011;39139;53.144;6.244;2023-07-30T14:54:38;5.68;;;1.25;;